sensor_id;sensor_type;location;lat;lon;timestamp;P1;durP1;ratioP1;P2;durP2;ratioP2
72369;SDS011;60343;-32.030;115.880;2022-11-15T00:00:57;1.27;;;0.10;;
72369;SDS011;60343;-32.030;115.880;2022-11-15T00:03:25;2.00;;;0.20;;
72369;SDS011;60343;-32.030;115.880;2022-11-15T00:05:55;1.65;;;0.10;;
72369;SDS011;60343;-32.030;115.880;2022-11-15T00:08:29;0.20;;;0.10;;
72369;SDS011;60343;-32.030;115.880;2022-11-15T00:10:58;1.15;;;0.10;;
72369;SDS011;60343;-32.030;115.880;2022-11-15T00:13:26;0.25;;;0.03;;
72369;SDS011;60343;-32.030;115.880;2022-11-15T00:16:03;1.45;;;0.10;;
72369;SDS011;60343;-32.030;115.880;2022-11-15T00:18:31;1.67;;;0.10;;
72369;SDS011;60343;-32.030;115.880;2022-11-15T00:21:03;0.52;;;0.10;;
72369;SDS011;60343;-32.030;115.880;2022-11-15T00:23:31;0.82;;;0.13;;
72369;SDS011;60343;-32.030;115.880;2022-11-15T00:26:00;3.08;;;0.20;;
72369;SDS011;60343;-32.030;115.880;2022-11-15T00:28:28;0.50;;;0.05;;
72369;SDS011;60343;-32.030;115.880;2022-11-15T00:31:05;0.75;;;0.30;;
72369;SDS011;60343;-32.030;115.880;2022-11-15T00:33:37;1.10;;;0.10;;
72369;SDS011;60343;-32.030;115.880;2022-11-15T00:36:05;1.27;;;0.10;;
72369;SDS011;60343;-32.030;115.880;2022-11-15T00:38:34;0.32;;;0.00;;
72369;SDS011;60343;-32.030;115.880;2022-11-15T00:41:03;2.85;;;0.17;;
72369;SDS011;60343;-32.030;115.880;2022-11-15T00:43:32;1.55;;;0.20;;
72369;SDS011;60343;-32.030;115.880;2022-11-15T00:46:05;0.20;;;0.08;;
72369;SDS011;60343;-32.030;115.880;2022-11-15T00:48:33;0.50;;;0.10;;
72369;SDS011;60343;-32.030;115.880;2022-11-15T00:51:01;2.72;;;0.10;;
72369;SDS011;60343;-32.030;115.880;2022-11-15T00:53:29;3.08;;;0.28;;
72369;SDS011;60343;-32.030;115.880;2022-11-15T00:55:56;1.17;;;0.10;;
72369;SDS011;60343;-32.030;115.880;2022-11-15T00:58:24;2.97;;;0.20;;
72369;SDS011;60343;-32.030;115.880;2022-11-15T01:00:52;2.40;;;0.17;;
72369;SDS011;60343;-32.030;115.880;2022-11-15T01:03:25;0.65;;;0.10;;
72369;SDS011;60343;-32.030;115.880;2022-11-15T01:05:52;0.50;;;0.03;;
72369;SDS011;60343;-32.030;115.880;2022-11-15T01:08:24;0.75;;;0.03;;
72369;SDS011;60343;-32.030;115.880;2022-11-15T01:10:52;0.73;;;0.10;;
72369;SDS011;60343;-32.030;115.880;2022-11-15T01:13:19;1.02;;;0.20;;
72369;SDS011;60343;-32.030;115.880;2022-11-15T01:15:47;1.40;;;0.10;;
72369;SDS011;60343;-32.030;115.880;2022-11-15T01:18:15;0.15;;;0.03;;
72369;SDS011;60343;-32.030;115.880;2022-11-15T01:20:48;3.67;;;0.20;;
72369;SDS011;60343;-32.030;115.880;2022-11-15T01:23:16;2.15;;;0.30;;
72369;SDS011;60343;-32.030;115.880;2022-11-15T01:25:43;1.05;;;0.10;;
72369;SDS011;60343;-32.030;115.880;2022-11-15T01:28:11;1.38;;;0.10;;
72369;SDS011;60343;-32.030;115.880;2022-11-15T01:30:39;1.75;;;0.20;;
72369;SDS011;60343;-32.030;115.880;2022-11-15T01:33:06;1.85;;;0.10;;
72369;SDS011;60343;-32.030;115.880;2022-11-15T01:35:37;2.58;;;0.30;;
72369;SDS011;60343;-32.030;115.880;2022-11-15T01:38:11;0.63;;;0.20;;
72369;SDS011;60343;-32.030;115.880;2022-11-15T01:40:38;2.55;;;0.10;;
72369;SDS011;60343;-32.030;115.880;2022-11-15T01:43:21;3.25;;;0.43;;
72369;SDS011;60343;-32.030;115.880;2022-11-15T01:45:51;0.88;;;0.13;;
72369;SDS011;60343;-32.030;115.880;2022-11-15T01:48:22;1.30;;;0.20;;
72369;SDS011;60343;-32.030;115.880;2022-11-15T01:50:55;1.27;;;0.15;;
72369;SDS011;60343;-32.030;115.880;2022-11-15T01:53:29;1.85;;;0.38;;
72369;SDS011;60343;-32.030;115.880;2022-11-15T01:56:00;1.25;;;0.32;;
72369;SDS011;60343;-32.030;115.880;2022-11-15T01:58:30;1.00;;;0.30;;
72369;SDS011;60343;-32.030;115.880;2022-11-15T02:00:59;1.55;;;0.38;;
72369;SDS011;60343;-32.030;115.880;2022-11-15T02:03:29;3.05;;;0.50;;
72369;SDS011;60343;-32.030;115.880;2022-11-15T02:06:03;0.80;;;0.40;;
72369;SDS011;60343;-32.030;115.880;2022-11-15T02:08:36;2.00;;;0.40;;
72369;SDS011;60343;-32.030;115.880;2022-11-15T02:11:06;1.73;;;0.50;;
72369;SDS011;60343;-32.030;115.880;2022-11-15T02:13:35;2.22;;;0.40;;
72369;SDS011;60343;-32.030;115.880;2022-11-15T02:16:04;3.03;;;0.50;;
72369;SDS011;60343;-32.030;115.880;2022-11-15T02:18:40;1.65;;;0.47;;
72369;SDS011;60343;-32.030;115.880;2022-11-15T02:21:16;1.33;;;0.40;;
72369;SDS011;60343;-32.030;115.880;2022-11-15T02:24:06;3.50;;;0.50;;
72369;SDS011;60343;-32.030;115.880;2022-11-15T02:27:08;1.63;;;0.50;;
72369;SDS011;60343;-32.030;115.880;2022-11-15T02:29:56;1.65;;;0.52;;
72369;SDS011;60343;-32.030;115.880;2022-11-15T02:32:40;2.35;;;0.60;;
72369;SDS011;60343;-32.030;115.880;2022-11-15T02:35:12;2.58;;;0.98;;
72369;SDS011;60343;-32.030;115.880;2022-11-15T02:37:51;3.63;;;1.10;;
72369;SDS011;60343;-32.030;115.880;2022-11-15T02:40:25;2.85;;;1.00;;
72369;SDS011;60343;-32.030;115.880;2022-11-15T02:43:04;2.95;;;0.80;;
72369;SDS011;60343;-32.030;115.880;2022-11-15T02:45:37;3.13;;;1.10;;
72369;SDS011;60343;-32.030;115.880;2022-11-15T02:48:16;3.80;;;1.30;;
72369;SDS011;60343;-32.030;115.880;2022-11-15T02:50:45;3.25;;;1.10;;
72369;SDS011;60343;-32.030;115.880;2022-11-15T02:53:14;4.60;;;1.10;;
72369;SDS011;60343;-32.030;115.880;2022-11-15T02:55:43;2.58;;;0.80;;
72369;SDS011;60343;-32.030;115.880;2022-11-15T02:58:22;4.18;;;0.43;;
72369;SDS011;60343;-32.030;115.880;2022-11-15T03:01:04;2.60;;;0.55;;
72369;SDS011;60343;-32.030;115.880;2022-11-15T03:03:48;2.47;;;1.10;;
72369;SDS011;60343;-32.030;115.880;2022-11-15T03:06:28;2.83;;;1.10;;
72369;SDS011;60343;-32.030;115.880;2022-11-15T03:09:03;2.72;;;1.05;;
72369;SDS011;60343;-32.030;115.880;2022-11-15T03:14:02;0.85;;;0.20;;
72369;SDS011;60343;-32.030;115.880;2022-11-15T03:16:41;1.55;;;0.20;;
72369;SDS011;60343;-32.030;115.880;2022-11-15T03:19:20;2.13;;;0.80;;
72369;SDS011;60343;-32.030;115.880;2022-11-15T03:21:56;1.85;;;0.70;;
72369;SDS011;60343;-32.030;115.880;2022-11-15T03:24:26;3.22;;;0.70;;
72369;SDS011;60343;-32.030;115.880;2022-11-15T03:26:57;0.98;;;0.30;;
72369;SDS011;60343;-32.030;115.880;2022-11-15T03:29:29;0.40;;;0.05;;
72369;SDS011;60343;-32.030;115.880;2022-11-15T03:32:00;1.65;;;0.20;;
72369;SDS011;60343;-32.030;115.880;2022-11-15T03:34:38;1.02;;;0.30;;
72369;SDS011;60343;-32.030;115.880;2022-11-15T03:37:09;1.70;;;0.30;;
72369;SDS011;60343;-32.030;115.880;2022-11-15T03:39:38;3.20;;;0.20;;
72369;SDS011;60343;-32.030;115.880;2022-11-15T03:42:09;1.17;;;0.20;;
72369;SDS011;60343;-32.030;115.880;2022-11-15T03:44:46;0.75;;;0.30;;
72369;SDS011;60343;-32.030;115.880;2022-11-15T03:47:21;1.75;;;0.38;;
72369;SDS011;60343;-32.030;115.880;2022-11-15T03:50:01;2.45;;;0.20;;
72369;SDS011;60343;-32.030;115.880;2022-11-15T03:52:33;1.02;;;0.10;;
72369;SDS011;60343;-32.030;115.880;2022-11-15T03:55:02;1.13;;;0.30;;
72369;SDS011;60343;-32.030;115.880;2022-11-15T03:57:31;0.95;;;0.20;;
72369;SDS011;60343;-32.030;115.880;2022-11-15T03:59:59;1.08;;;0.10;;
72369;SDS011;60343;-32.030;115.880;2022-11-15T04:02:27;1.08;;;0.10;;
72369;SDS011;60343;-32.030;115.880;2022-11-15T04:05:00;0.65;;;0.13;;
72369;SDS011;60343;-32.030;115.880;2022-11-15T04:07:28;0.82;;;0.20;;
72369;SDS011;60343;-32.030;115.880;2022-11-15T04:09:55;1.65;;;0.10;;
72369;SDS011;60343;-32.030;115.880;2022-11-15T04:12:23;1.10;;;0.20;;
72369;SDS011;60343;-32.030;115.880;2022-11-15T04:14:51;0.82;;;0.30;;
72369;SDS011;60343;-32.030;115.880;2022-11-15T04:17:18;1.88;;;0.20;;
72369;SDS011;60343;-32.030;115.880;2022-11-15T04:19:46;1.25;;;0.30;;
72369;SDS011;60343;-32.030;115.880;2022-11-15T04:22:19;0.93;;;0.20;;
72369;SDS011;60343;-32.030;115.880;2022-11-15T04:24:47;1.88;;;0.17;;
72369;SDS011;60343;-32.030;115.880;2022-11-15T04:27:15;1.05;;;0.10;;
72369;SDS011;60343;-32.030;115.880;2022-11-15T04:29:42;1.83;;;0.30;;
72369;SDS011;60343;-32.030;115.880;2022-11-15T04:32:10;2.50;;;0.30;;
72369;SDS011;60343;-32.030;115.880;2022-11-15T04:34:37;1.92;;;0.20;;
72369;SDS011;60343;-32.030;115.880;2022-11-15T04:37:05;0.80;;;0.10;;
72369;SDS011;60343;-32.030;115.880;2022-11-15T04:39:39;1.67;;;0.30;;
72369;SDS011;60343;-32.030;115.880;2022-11-15T04:42:07;1.77;;;0.20;;
72369;SDS011;60343;-32.030;115.880;2022-11-15T04:44:35;0.40;;;0.10;;
72369;SDS011;60343;-32.030;115.880;2022-11-15T04:47:03;0.93;;;0.20;;
72369;SDS011;60343;-32.030;115.880;2022-11-15T04:49:30;1.65;;;0.30;;
72369;SDS011;60343;-32.030;115.880;2022-11-15T04:51:58;1.90;;;0.10;;
72369;SDS011;60343;-32.030;115.880;2022-11-15T04:54:26;2.97;;;0.50;;
72369;SDS011;60343;-32.030;115.880;2022-11-15T04:56:59;2.03;;;0.15;;
72369;SDS011;60343;-32.030;115.880;2022-11-15T04:59:26;1.48;;;0.30;;
72369;SDS011;60343;-32.030;115.880;2022-11-15T05:01:54;0.20;;;0.10;;
72369;SDS011;60343;-32.030;115.880;2022-11-15T05:04:22;0.82;;;0.20;;
72369;SDS011;60343;-32.030;115.880;2022-11-15T05:06:50;0.85;;;0.25;;
72369;SDS011;60343;-32.030;115.880;2022-11-15T05:09:18;1.17;;;0.20;;
72369;SDS011;60343;-32.030;115.880;2022-11-15T05:11:46;0.47;;;0.10;;
72369;SDS011;60343;-32.030;115.880;2022-11-15T05:14:19;0.82;;;0.30;;
72369;SDS011;60343;-32.030;115.880;2022-11-15T05:16:47;1.67;;;0.30;;
72369;SDS011;60343;-32.030;115.880;2022-11-15T05:19:14;3.33;;;0.40;;
72369;SDS011;60343;-32.030;115.880;2022-11-15T05:21:42;0.95;;;0.22;;
72369;SDS011;60343;-32.030;115.880;2022-11-15T05:24:10;1.45;;;0.30;;
72369;SDS011;60343;-32.030;115.880;2022-11-15T05:26:37;1.77;;;0.30;;
72369;SDS011;60343;-32.030;115.880;2022-11-15T05:29:05;0.93;;;0.43;;
72369;SDS011;60343;-32.030;115.880;2022-11-15T05:31:40;1.88;;;0.40;;
72369;SDS011;60343;-32.030;115.880;2022-11-15T05:34:08;1.38;;;0.30;;
72369;SDS011;60343;-32.030;115.880;2022-11-15T05:36:36;0.70;;;0.30;;
72369;SDS011;60343;-32.030;115.880;2022-11-15T05:39:07;0.45;;;0.10;;
72369;SDS011;60343;-32.030;115.880;2022-11-15T05:41:35;1.42;;;0.20;;
72369;SDS011;60343;-32.030;115.880;2022-11-15T05:44:07;0.85;;;0.20;;
72369;SDS011;60343;-32.030;115.880;2022-11-15T05:46:42;0.85;;;0.10;;
72369;SDS011;60343;-32.030;115.880;2022-11-15T05:49:10;0.73;;;0.10;;
72369;SDS011;60343;-32.030;115.880;2022-11-15T05:51:41;1.48;;;0.22;;
72369;SDS011;60343;-32.030;115.880;2022-11-15T05:54:10;0.80;;;0.20;;
72369;SDS011;60343;-32.030;115.880;2022-11-15T05:56:38;1.88;;;0.10;;
72369;SDS011;60343;-32.030;115.880;2022-11-15T05:59:06;1.17;;;0.10;;
72369;SDS011;60343;-32.030;115.880;2022-11-15T06:01:35;5.45;;;0.25;;
72369;SDS011;60343;-32.030;115.880;2022-11-15T06:04:08;0.82;;;0.10;;
72369;SDS011;60343;-32.030;115.880;2022-11-15T06:06:36;1.17;;;0.20;;
72369;SDS011;60343;-32.030;115.880;2022-11-15T06:09:04;2.15;;;0.20;;
72369;SDS011;60343;-32.030;115.880;2022-11-15T06:11:31;0.73;;;0.20;;
72369;SDS011;60343;-32.030;115.880;2022-11-15T06:13:59;1.50;;;0.30;;
72369;SDS011;60343;-32.030;115.880;2022-11-15T06:16:27;1.25;;;0.13;;
72369;SDS011;60343;-32.030;115.880;2022-11-15T06:19:00;1.20;;;0.10;;
72369;SDS011;60343;-32.030;115.880;2022-11-15T06:21:30;0.30;;;0.08;;
72369;SDS011;60343;-32.030;115.880;2022-11-15T06:23:58;0.77;;;0.20;;
72369;SDS011;60343;-32.030;115.880;2022-11-15T06:26:26;0.50;;;0.10;;
72369;SDS011;60343;-32.030;115.880;2022-11-15T06:28:53;1.70;;;0.20;;
72369;SDS011;60343;-32.030;115.880;2022-11-15T06:31:21;0.82;;;0.10;;
72369;SDS011;60343;-32.030;115.880;2022-11-15T06:33:49;0.28;;;0.00;;
72369;SDS011;60343;-32.030;115.880;2022-11-15T06:36:22;0.85;;;0.10;;
72369;SDS011;60343;-32.030;115.880;2022-11-15T06:38:49;1.08;;;0.10;;
72369;SDS011;60343;-32.030;115.880;2022-11-15T06:41:17;1.92;;;0.10;;
72369;SDS011;60343;-32.030;115.880;2022-11-15T06:43:45;2.13;;;0.10;;
72369;SDS011;60343;-32.030;115.880;2022-11-15T06:46:12;0.75;;;0.20;;
72369;SDS011;60343;-32.030;115.880;2022-11-15T06:48:40;1.75;;;0.30;;
72369;SDS011;60343;-32.030;115.880;2022-11-15T06:51:08;2.38;;;0.13;;
72369;SDS011;60343;-32.030;115.880;2022-11-15T06:53:41;4.35;;;0.65;;
72369;SDS011;60343;-32.030;115.880;2022-11-15T06:56:08;2.92;;;0.20;;
72369;SDS011;60343;-32.030;115.880;2022-11-15T06:58:36;1.45;;;0.20;;
72369;SDS011;60343;-32.030;115.880;2022-11-15T07:01:04;0.43;;;0.15;;
72369;SDS011;60343;-32.030;115.880;2022-11-15T07:03:34;1.20;;;0.20;;
72369;SDS011;60343;-32.030;115.880;2022-11-15T07:06:03;3.20;;;0.20;;
72369;SDS011;60343;-32.030;115.880;2022-11-15T07:08:31;0.85;;;0.15;;
72369;SDS011;60343;-32.030;115.880;2022-11-15T07:11:05;0.85;;;0.20;;
72369;SDS011;60343;-32.030;115.880;2022-11-15T07:13:34;1.58;;;0.20;;
72369;SDS011;60343;-32.030;115.880;2022-11-15T07:16:02;1.83;;;0.10;;
72369;SDS011;60343;-32.030;115.880;2022-11-15T07:18:33;2.95;;;0.25;;
72369;SDS011;60343;-32.030;115.880;2022-11-15T07:21:01;0.88;;;0.15;;
72369;SDS011;60343;-32.030;115.880;2022-11-15T07:23:29;0.95;;;0.20;;
72369;SDS011;60343;-32.030;115.880;2022-11-15T07:25:57;1.20;;;0.20;;
72369;SDS011;60343;-32.030;115.880;2022-11-15T07:28:31;0.95;;;0.17;;
72369;SDS011;60343;-32.030;115.880;2022-11-15T07:31:01;1.67;;;0.20;;
72369;SDS011;60343;-32.030;115.880;2022-11-15T07:33:29;0.90;;;0.10;;
72369;SDS011;60343;-32.030;115.880;2022-11-15T07:35:58;2.50;;;0.30;;
72369;SDS011;60343;-32.030;115.880;2022-11-15T07:38:26;2.75;;;0.17;;
72369;SDS011;60343;-32.030;115.880;2022-11-15T07:40:56;5.43;;;0.55;;
72369;SDS011;60343;-32.030;115.880;2022-11-15T07:43:30;0.82;;;0.10;;
72369;SDS011;60343;-32.030;115.880;2022-11-15T07:45:58;0.55;;;0.13;;
72369;SDS011;60343;-32.030;115.880;2022-11-15T07:48:30;2.00;;;0.10;;
72369;SDS011;60343;-32.030;115.880;2022-11-15T07:50:58;4.63;;;0.40;;
72369;SDS011;60343;-32.030;115.880;2022-11-15T07:53:25;0.45;;;0.13;;
72369;SDS011;60343;-32.030;115.880;2022-11-15T07:55:53;0.98;;;0.15;;
72369;SDS011;60343;-32.030;115.880;2022-11-15T07:58:21;1.73;;;0.30;;
72369;SDS011;60343;-32.030;115.880;2022-11-15T08:00:54;1.52;;;0.20;;
72369;SDS011;60343;-32.030;115.880;2022-11-15T08:03:21;4.30;;;0.57;;
72369;SDS011;60343;-32.030;115.880;2022-11-15T08:05:52;2.63;;;0.25;;
72369;SDS011;60343;-32.030;115.880;2022-11-15T08:08:20;1.88;;;0.20;;
72369;SDS011;60343;-32.030;115.880;2022-11-15T08:10:48;1.42;;;0.13;;
72369;SDS011;60343;-32.030;115.880;2022-11-15T08:13:15;0.45;;;0.10;;
72369;SDS011;60343;-32.030;115.880;2022-11-15T08:15:43;4.55;;;0.20;;
72369;SDS011;60343;-32.030;115.880;2022-11-15T08:18:16;3.03;;;0.20;;
72369;SDS011;60343;-32.030;115.880;2022-11-15T08:20:44;4.60;;;0.30;;
72369;SDS011;60343;-32.030;115.880;2022-11-15T08:23:12;1.75;;;0.20;;
72369;SDS011;60343;-32.030;115.880;2022-11-15T08:25:39;0.73;;;0.10;;
72369;SDS011;60343;-32.030;115.880;2022-11-15T08:28:09;3.10;;;0.28;;
72369;SDS011;60343;-32.030;115.880;2022-11-15T08:30:37;1.60;;;0.20;;
72369;SDS011;60343;-32.030;115.880;2022-11-15T08:33:09;2.25;;;0.13;;
72369;SDS011;60343;-32.030;115.880;2022-11-15T08:35:43;1.38;;;0.20;;
72369;SDS011;60343;-32.030;115.880;2022-11-15T08:38:11;0.52;;;0.20;;
72369;SDS011;60343;-32.030;115.880;2022-11-15T08:40:39;3.42;;;0.40;;
72369;SDS011;60343;-32.030;115.880;2022-11-15T08:43:06;1.80;;;0.30;;
72369;SDS011;60343;-32.030;115.880;2022-11-15T08:45:34;2.78;;;0.32;;
72369;SDS011;60343;-32.030;115.880;2022-11-15T08:48:02;4.68;;;0.50;;
72369;SDS011;60343;-32.030;115.880;2022-11-15T08:50:36;4.28;;;0.30;;
72369;SDS011;60343;-32.030;115.880;2022-11-15T08:53:07;3.13;;;0.30;;
72369;SDS011;60343;-32.030;115.880;2022-11-15T08:55:36;5.30;;;0.40;;
72369;SDS011;60343;-32.030;115.880;2022-11-15T08:58:04;5.13;;;0.50;;
72369;SDS011;60343;-32.030;115.880;2022-11-15T09:00:32;3.83;;;0.43;;
72369;SDS011;60343;-32.030;115.880;2022-11-15T09:03:03;2.78;;;0.40;;
72369;SDS011;60343;-32.030;115.880;2022-11-15T09:05:37;2.90;;;0.40;;
72369;SDS011;60343;-32.030;115.880;2022-11-15T09:08:05;1.77;;;0.20;;
72369;SDS011;60343;-32.030;115.880;2022-11-15T09:10:33;2.95;;;0.40;;
72369;SDS011;60343;-32.030;115.880;2022-11-15T09:13:00;4.03;;;0.30;;
72369;SDS011;60343;-32.030;115.880;2022-11-15T09:15:28;3.65;;;0.30;;
72369;SDS011;60343;-32.030;115.880;2022-11-15T09:17:58;3.55;;;0.40;;
72369;SDS011;60343;-32.030;115.880;2022-11-15T09:20:25;2.15;;;0.30;;
72369;SDS011;60343;-32.030;115.880;2022-11-15T09:22:59;3.10;;;0.40;;
72369;SDS011;60343;-32.030;115.880;2022-11-15T09:25:27;1.05;;;0.20;;
72369;SDS011;60343;-32.030;115.880;2022-11-15T09:27:57;6.45;;;0.40;;
72369;SDS011;60343;-32.030;115.880;2022-11-15T09:30:25;3.80;;;0.30;;
72369;SDS011;60343;-32.030;115.880;2022-11-15T09:32:53;2.40;;;0.28;;
72369;SDS011;60343;-32.030;115.880;2022-11-15T09:35:21;4.97;;;0.22;;
72369;SDS011;60343;-32.030;115.880;2022-11-15T09:37:48;1.73;;;0.32;;
72369;SDS011;60343;-32.030;115.880;2022-11-15T09:40:22;4.20;;;0.30;;
72369;SDS011;60343;-32.030;115.880;2022-11-15T09:42:56;2.17;;;0.20;;
72369;SDS011;60343;-32.030;115.880;2022-11-15T09:45:36;3.85;;;0.17;;
72369;SDS011;60343;-32.030;115.880;2022-11-15T09:48:29;1.80;;;0.22;;
72369;SDS011;60343;-32.030;115.880;2022-11-15T09:51:16;2.38;;;0.20;;
72369;SDS011;60343;-32.030;115.880;2022-11-15T09:53:58;2.38;;;0.20;;
72369;SDS011;60343;-32.030;115.880;2022-11-15T09:56:36;2.47;;;0.20;;
72369;SDS011;60343;-32.030;115.880;2022-11-15T09:59:14;4.93;;;0.45;;
72369;SDS011;60343;-32.030;115.880;2022-11-15T10:01:53;0.82;;;0.10;;
72369;SDS011;60343;-32.030;115.880;2022-11-15T10:04:27;2.05;;;0.10;;
72369;SDS011;60343;-32.030;115.880;2022-11-15T10:06:58;1.27;;;0.10;;
72369;SDS011;60343;-32.030;115.880;2022-11-15T10:09:33;1.08;;;0.15;;
72369;SDS011;60343;-32.030;115.880;2022-11-15T10:12:14;1.65;;;0.17;;
72369;SDS011;60343;-32.030;115.880;2022-11-15T10:14:42;5.07;;;0.25;;
72369;SDS011;60343;-32.030;115.880;2022-11-15T10:17:17;2.08;;;0.28;;
72369;SDS011;60343;-32.030;115.880;2022-11-15T10:20:09;3.50;;;0.20;;
72369;SDS011;60343;-32.030;115.880;2022-11-15T10:22:44;1.20;;;0.30;;
72369;SDS011;60343;-32.030;115.880;2022-11-15T10:25:18;2.25;;;0.20;;
72369;SDS011;60343;-32.030;115.880;2022-11-15T10:30:37;2.75;;;0.30;;
72369;SDS011;60343;-32.030;115.880;2022-11-15T10:33:19;2.45;;;0.28;;
72369;SDS011;60343;-32.030;115.880;2022-11-15T10:38:57;2.25;;;0.30;;
72369;SDS011;60343;-32.030;115.880;2022-11-15T10:41:36;1.00;;;0.10;;
72369;SDS011;60343;-32.030;115.880;2022-11-15T10:53:29;2.25;;;0.20;;
72369;SDS011;60343;-32.030;115.880;2022-11-15T10:56:05;1.75;;;0.25;;
72369;SDS011;60343;-32.030;115.880;2022-11-15T10:58:38;0.50;;;0.10;;
72369;SDS011;60343;-32.030;115.880;2022-11-15T11:01:14;1.67;;;0.20;;
72369;SDS011;60343;-32.030;115.880;2022-11-15T11:03:57;1.75;;;0.25;;
72369;SDS011;60343;-32.030;115.880;2022-11-15T11:06:25;1.73;;;0.30;;
72369;SDS011;60343;-32.030;115.880;2022-11-15T11:09:00;2.20;;;0.20;;
72369;SDS011;60343;-32.030;115.880;2022-11-15T11:11:43;1.75;;;0.20;;
72369;SDS011;60343;-32.030;115.880;2022-11-15T11:14:12;2.42;;;0.30;;
72369;SDS011;60343;-32.030;115.880;2022-11-15T11:16:46;2.55;;;0.50;;
72369;SDS011;60343;-32.030;115.880;2022-11-15T11:22:09;3.75;;;0.43;;
72369;SDS011;60343;-32.030;115.880;2022-11-15T11:24:51;1.65;;;0.25;;
72369;SDS011;60343;-32.030;115.880;2022-11-15T11:27:39;8.35;;;0.80;;
72369;SDS011;60343;-32.030;115.880;2022-11-15T11:30:17;3.00;;;0.20;;
72369;SDS011;60343;-32.030;115.880;2022-11-15T11:32:53;3.08;;;0.50;;
72369;SDS011;60343;-32.030;115.880;2022-11-15T11:35:30;4.38;;;0.40;;
72369;SDS011;60343;-32.030;115.880;2022-11-15T11:38:07;1.63;;;0.20;;
72369;SDS011;60343;-32.030;115.880;2022-11-15T11:40:54;3.88;;;0.40;;
72369;SDS011;60343;-32.030;115.880;2022-11-15T11:43:32;4.18;;;0.38;;
72369;SDS011;60343;-32.030;115.880;2022-11-15T11:46:14;2.78;;;0.30;;
72369;SDS011;60343;-32.030;115.880;2022-11-15T11:53:56;2.30;;;0.15;;
72369;SDS011;60343;-32.030;115.880;2022-11-15T11:56:32;3.20;;;0.20;;
72369;SDS011;60343;-32.030;115.880;2022-11-15T11:59:05;1.33;;;0.25;;
72369;SDS011;60343;-32.030;115.880;2022-11-15T12:01:40;2.53;;;0.25;;
72369;SDS011;60343;-32.030;115.880;2022-11-15T12:04:11;1.63;;;0.35;;
72369;SDS011;60343;-32.030;115.880;2022-11-15T12:06:46;1.15;;;0.28;;
72369;SDS011;60343;-32.030;115.880;2022-11-15T12:09:19;4.03;;;0.35;;
72369;SDS011;60343;-32.030;115.880;2022-11-15T12:11:58;3.67;;;0.52;;
72369;SDS011;60343;-32.030;115.880;2022-11-15T12:14:35;1.27;;;0.40;;
72369;SDS011;60343;-32.030;115.880;2022-11-15T12:17:08;1.27;;;0.40;;
72369;SDS011;60343;-32.030;115.880;2022-11-15T12:19:43;2.45;;;0.40;;
72369;SDS011;60343;-32.030;115.880;2022-11-15T12:22:16;3.35;;;0.50;;
72369;SDS011;60343;-32.030;115.880;2022-11-15T12:24:48;1.92;;;0.40;;
72369;SDS011;60343;-32.030;115.880;2022-11-15T12:27:28;3.97;;;0.32;;
72369;SDS011;60343;-32.030;115.880;2022-11-15T12:30:03;4.47;;;0.50;;
72369;SDS011;60343;-32.030;115.880;2022-11-15T12:32:37;2.80;;;0.35;;
72369;SDS011;60343;-32.030;115.880;2022-11-15T12:35:06;2.58;;;0.47;;
72369;SDS011;60343;-32.030;115.880;2022-11-15T12:37:49;5.45;;;0.60;;
72369;SDS011;60343;-32.030;115.880;2022-11-15T12:40:21;2.28;;;0.20;;
72369;SDS011;60343;-32.030;115.880;2022-11-15T12:43:10;3.45;;;0.30;;
72369;SDS011;60343;-32.030;115.880;2022-11-15T12:46:04;3.05;;;0.32;;
72369;SDS011;60343;-32.030;115.880;2022-11-15T12:48:47;1.38;;;0.32;;
72369;SDS011;60343;-32.030;115.880;2022-11-15T12:51:16;1.38;;;0.30;;
72369;SDS011;60343;-32.030;115.880;2022-11-15T12:53:46;1.98;;;0.30;;
72369;SDS011;60343;-32.030;115.880;2022-11-15T12:56:21;2.35;;;0.32;;
72369;SDS011;60343;-32.030;115.880;2022-11-15T13:04:22;1.73;;;0.30;;
72369;SDS011;60343;-32.030;115.880;2022-11-15T13:06:52;3.08;;;0.50;;
72369;SDS011;60343;-32.030;115.880;2022-11-15T13:21:19;1.83;;;0.30;;
72369;SDS011;60343;-32.030;115.880;2022-11-15T13:23:52;4.35;;;0.32;;
72369;SDS011;60343;-32.030;115.880;2022-11-15T13:26:20;1.95;;;0.30;;
72369;SDS011;60343;-32.030;115.880;2022-11-15T13:28:48;5.57;;;0.40;;
72369;SDS011;60343;-32.030;115.880;2022-11-15T13:31:26;1.88;;;0.38;;
72369;SDS011;60343;-32.030;115.880;2022-11-15T13:34:03;1.90;;;0.22;;
72369;SDS011;60343;-32.030;115.880;2022-11-15T13:36:49;1.35;;;0.35;;
72369;SDS011;60343;-32.030;115.880;2022-11-15T13:39:29;1.85;;;0.30;;
72369;SDS011;60343;-32.030;115.880;2022-11-15T13:42:00;2.88;;;0.32;;
72369;SDS011;60343;-32.030;115.880;2022-11-15T13:44:29;1.52;;;0.32;;
72369;SDS011;60343;-32.030;115.880;2022-11-15T13:47:04;2.78;;;0.40;;
72369;SDS011;60343;-32.030;115.880;2022-11-15T13:49:38;1.10;;;0.30;;
72369;SDS011;60343;-32.030;115.880;2022-11-15T13:52:07;1.70;;;0.40;;
72369;SDS011;60343;-32.030;115.880;2022-11-15T13:54:37;2.60;;;0.38;;
72369;SDS011;60343;-32.030;115.880;2022-11-15T13:57:10;3.15;;;0.40;;
72369;SDS011;60343;-32.030;115.880;2022-11-15T13:59:48;2.17;;;0.60;;
72369;SDS011;60343;-32.030;115.880;2022-11-15T14:02:18;6.32;;;0.80;;
72369;SDS011;60343;-32.030;115.880;2022-11-15T14:04:58;2.67;;;0.32;;
72369;SDS011;60343;-32.030;115.880;2022-11-15T14:07:29;5.63;;;0.68;;
72369;SDS011;60343;-32.030;115.880;2022-11-15T14:09:57;4.10;;;0.40;;
72369;SDS011;60343;-32.030;115.880;2022-11-15T14:12:49;1.73;;;0.30;;
72369;SDS011;60343;-32.030;115.880;2022-11-15T14:15:25;1.73;;;0.30;;
72369;SDS011;60343;-32.030;115.880;2022-11-15T14:17:55;1.70;;;0.30;;
72369;SDS011;60343;-32.030;115.880;2022-11-15T14:20:34;3.28;;;0.50;;
72369;SDS011;60343;-32.030;115.880;2022-11-15T14:23:04;5.60;;;0.60;;
72369;SDS011;60343;-32.030;115.880;2022-11-15T14:25:52;1.58;;;0.28;;
72369;SDS011;60343;-32.030;115.880;2022-11-15T14:28:28;1.30;;;0.40;;
72369;SDS011;60343;-32.030;115.880;2022-11-15T14:30:57;1.83;;;0.32;;
72369;SDS011;60343;-32.030;115.880;2022-11-15T14:33:27;3.88;;;0.40;;
72369;SDS011;60343;-32.030;115.880;2022-11-15T14:36:02;3.47;;;0.40;;
72369;SDS011;60343;-32.030;115.880;2022-11-15T14:38:34;3.00;;;0.40;;
72369;SDS011;60343;-32.030;115.880;2022-11-15T14:41:04;3.95;;;0.45;;
72369;SDS011;60343;-32.030;115.880;2022-11-15T14:43:34;2.90;;;0.50;;
72369;SDS011;60343;-32.030;115.880;2022-11-15T14:46:03;3.40;;;0.30;;
72369;SDS011;60343;-32.030;115.880;2022-11-15T14:48:30;2.58;;;0.52;;
72369;SDS011;60343;-32.030;115.880;2022-11-15T14:51:08;3.28;;;0.50;;
72369;SDS011;60343;-32.030;115.880;2022-11-15T14:53:41;4.00;;;0.30;;
72369;SDS011;60343;-32.030;115.880;2022-11-15T14:56:09;2.85;;;0.60;;
72369;SDS011;60343;-32.030;115.880;2022-11-15T14:58:36;3.50;;;0.40;;
72369;SDS011;60343;-32.030;115.880;2022-11-15T15:01:09;3.25;;;0.40;;
72369;SDS011;60343;-32.030;115.880;2022-11-15T15:03:39;2.00;;;0.40;;
72369;SDS011;60343;-32.030;115.880;2022-11-15T15:06:12;4.03;;;0.45;;
72369;SDS011;60343;-32.030;115.880;2022-11-15T15:08:42;1.92;;;0.43;;
72369;SDS011;60343;-32.030;115.880;2022-11-15T15:11:10;5.57;;;0.40;;
72369;SDS011;60343;-32.030;115.880;2022-11-15T15:13:42;2.15;;;0.50;;
72369;SDS011;60343;-32.030;115.880;2022-11-15T15:18:49;2.53;;;0.28;;
72369;SDS011;60343;-32.030;115.880;2022-11-15T15:21:26;3.90;;;0.30;;